sensor_id;sensor_type;location;lat;lon;timestamp;P1;durP1;ratioP1;P2;durP2;ratioP2
71038;SDS011;58692;43.212;27.908;2023-11-22T00:02:17;12.00;;;6.10;;
71038;SDS011;58692;43.212;27.908;2023-11-22T00:04:43;13.10;;;5.60;;
71038;SDS011;58692;43.212;27.908;2023-11-22T00:07:08;12.07;;;6.25;;
71038;SDS011;58692;43.212;27.908;2023-11-22T00:09:34;12.73;;;5.90;;
71038;SDS011;58692;43.212;27.908;2023-11-22T00:11:59;11.27;;;5.43;;
71038;SDS011;58692;43.212;27.908;2023-11-22T00:14:25;10.68;;;4.63;;
71038;SDS011;58692;43.212;27.908;2023-11-22T00:16:51;10.90;;;4.97;;
71038;SDS011;58692;43.212;27.908;2023-11-22T00:19:16;10.68;;;5.18;;
71038;SDS011;58692;43.212;27.908;2023-11-22T00:21:43;9.85;;;4.88;;
71038;SDS011;58692;43.212;27.908;2023-11-22T00:24:09;10.43;;;5.07;;
71038;SDS011;58692;43.212;27.908;2023-11-22T00:26:35;9.18;;;4.70;;
71038;SDS011;58692;43.212;27.908;2023-11-22T00:29:00;10.80;;;4.87;;
71038;SDS011;58692;43.212;27.908;2023-11-22T00:31:26;9.73;;;4.65;;
71038;SDS011;58692;43.212;27.908;2023-11-22T00:33:51;10.47;;;4.80;;
71038;SDS011;58692;43.212;27.908;2023-11-22T00:36:17;10.63;;;4.97;;
71038;SDS011;58692;43.212;27.908;2023-11-22T00:38:43;9.57;;;4.88;;
71038;SDS011;58692;43.212;27.908;2023-11-22T00:41:09;12.45;;;5.38;;
71038;SDS011;58692;43.212;27.908;2023-11-22T00:43:34;11.17;;;5.70;;
71038;SDS011;58692;43.212;27.908;2023-11-22T00:46:00;9.47;;;4.50;;
71038;SDS011;58692;43.212;27.908;2023-11-22T00:48:26;12.23;;;4.55;;
71038;SDS011;58692;43.212;27.908;2023-11-22T00:50:52;13.40;;;4.40;;
71038;SDS011;58692;43.212;27.908;2023-11-22T00:53:17;12.00;;;4.90;;
71038;SDS011;58692;43.212;27.908;2023-11-22T00:55:43;10.85;;;4.45;;
71038;SDS011;58692;43.212;27.908;2023-11-22T00:58:09;10.30;;;5.37;;
71038;SDS011;58692;43.212;27.908;2023-11-22T01:00:34;9.63;;;4.10;;
71038;SDS011;58692;43.212;27.908;2023-11-22T01:03:00;11.95;;;5.00;;
71038;SDS011;58692;43.212;27.908;2023-11-22T01:05:25;10.23;;;4.90;;
71038;SDS011;58692;43.212;27.908;2023-11-22T01:07:51;10.13;;;4.78;;
71038;SDS011;58692;43.212;27.908;2023-11-22T01:10:17;9.23;;;3.97;;
71038;SDS011;58692;43.212;27.908;2023-11-22T01:12:42;11.10;;;5.10;;
71038;SDS011;58692;43.212;27.908;2023-11-22T01:15:08;12.38;;;5.50;;
71038;SDS011;58692;43.212;27.908;2023-11-22T01:17:34;11.85;;;5.88;;
71038;SDS011;58692;43.212;27.908;2023-11-22T01:20:00;12.87;;;6.40;;
71038;SDS011;58692;43.212;27.908;2023-11-22T01:22:26;15.90;;;7.00;;
71038;SDS011;58692;43.212;27.908;2023-11-22T01:24:52;17.27;;;6.85;;
71038;SDS011;58692;43.212;27.908;2023-11-22T01:27:18;15.68;;;7.63;;
71038;SDS011;58692;43.212;27.908;2023-11-22T01:29:44;15.67;;;7.13;;
71038;SDS011;58692;43.212;27.908;2023-11-22T01:32:10;16.48;;;7.05;;
71038;SDS011;58692;43.212;27.908;2023-11-22T01:34:36;15.07;;;7.60;;
71038;SDS011;58692;43.212;27.908;2023-11-22T01:37:02;12.48;;;6.22;;
71038;SDS011;58692;43.212;27.908;2023-11-22T01:39:28;12.90;;;6.32;;
71038;SDS011;58692;43.212;27.908;2023-11-22T01:41:53;12.07;;;6.20;;
71038;SDS011;58692;43.212;27.908;2023-11-22T01:44:19;13.03;;;6.63;;
71038;SDS011;58692;43.212;27.908;2023-11-22T01:46:45;11.50;;;5.97;;
71038;SDS011;58692;43.212;27.908;2023-11-22T01:49:11;12.30;;;6.32;;
71038;SDS011;58692;43.212;27.908;2023-11-22T01:51:39;11.68;;;6.18;;
71038;SDS011;58692;43.212;27.908;2023-11-22T01:54:06;15.53;;;7.00;;
71038;SDS011;58692;43.212;27.908;2023-11-22T01:56:34;15.75;;;7.50;;
71038;SDS011;58692;43.212;27.908;2023-11-22T01:59:02;18.88;;;7.55;;
71038;SDS011;58692;43.212;27.908;2023-11-22T02:01:29;14.85;;;7.18;;
71038;SDS011;58692;43.212;27.908;2023-11-22T02:03:56;18.08;;;8.85;;
71038;SDS011;58692;43.212;27.908;2023-11-22T02:06:22;17.90;;;8.80;;
71038;SDS011;58692;43.212;27.908;2023-11-22T02:08:49;17.02;;;8.07;;
71038;SDS011;58692;43.212;27.908;2023-11-22T02:11:17;15.77;;;8.27;;
71038;SDS011;58692;43.212;27.908;2023-11-22T02:13:48;15.55;;;7.85;;
71038;SDS011;58692;43.212;27.908;2023-11-22T02:16:15;12.98;;;7.25;;
71038;SDS011;58692;43.212;27.908;2023-11-22T02:18:43;15.10;;;6.90;;
71038;SDS011;58692;43.212;27.908;2023-11-22T02:21:10;13.48;;;7.00;;
71038;SDS011;58692;43.212;27.908;2023-11-22T02:23:36;13.50;;;6.80;;
71038;SDS011;58692;43.212;27.908;2023-11-22T02:26:02;11.77;;;6.53;;
71038;SDS011;58692;43.212;27.908;2023-11-22T02:28:27;12.93;;;6.47;;
71038;SDS011;58692;43.212;27.908;2023-11-22T02:30:53;13.10;;;6.72;;
71038;SDS011;58692;43.212;27.908;2023-11-22T02:33:19;13.40;;;6.93;;
71038;SDS011;58692;43.212;27.908;2023-11-22T02:35:45;13.80;;;6.88;;
71038;SDS011;58692;43.212;27.908;2023-11-22T02:38:11;12.85;;;7.22;;
71038;SDS011;58692;43.212;27.908;2023-11-22T02:40:36;16.90;;;7.43;;
71038;SDS011;58692;43.212;27.908;2023-11-22T02:43:02;12.70;;;6.43;;
71038;SDS011;58692;43.212;27.908;2023-11-22T02:45:34;11.63;;;6.50;;
71038;SDS011;58692;43.212;27.908;2023-11-22T02:48:00;14.07;;;6.50;;
71038;SDS011;58692;43.212;27.908;2023-11-22T02:50:29;13.05;;;6.25;;
71038;SDS011;58692;43.212;27.908;2023-11-22T02:52:57;15.10;;;7.00;;
71038;SDS011;58692;43.212;27.908;2023-11-22T02:55:24;13.10;;;6.75;;
71038;SDS011;58692;43.212;27.908;2023-11-22T02:57:49;11.00;;;6.30;;
71038;SDS011;58692;43.212;27.908;2023-11-22T03:00:16;10.88;;;5.88;;
71038;SDS011;58692;43.212;27.908;2023-11-22T03:02:43;14.05;;;7.00;;
71038;SDS011;58692;43.212;27.908;2023-11-22T03:05:11;14.18;;;6.03;;
71038;SDS011;58692;43.212;27.908;2023-11-22T03:07:39;13.05;;;6.40;;
71038;SDS011;58692;43.212;27.908;2023-11-22T03:10:07;10.53;;;6.43;;
71038;SDS011;58692;43.212;27.908;2023-11-22T03:12:34;13.63;;;6.30;;
71038;SDS011;58692;43.212;27.908;2023-11-22T03:15:00;12.35;;;6.10;;
71038;SDS011;58692;43.212;27.908;2023-11-22T03:17:27;12.23;;;6.13;;
71038;SDS011;58692;43.212;27.908;2023-11-22T03:19:54;10.15;;;5.70;;
71038;SDS011;58692;43.212;27.908;2023-11-22T03:22:22;11.13;;;6.60;;
71038;SDS011;58692;43.212;27.908;2023-11-22T03:24:49;12.70;;;5.95;;
71038;SDS011;58692;43.212;27.908;2023-11-22T03:27:14;12.57;;;6.22;;
71038;SDS011;58692;43.212;27.908;2023-11-22T03:29:40;11.53;;;5.70;;
71038;SDS011;58692;43.212;27.908;2023-11-22T03:32:06;11.43;;;6.15;;
71038;SDS011;58692;43.212;27.908;2023-11-22T03:34:31;12.07;;;5.90;;
71038;SDS011;58692;43.212;27.908;2023-11-22T03:36:57;13.50;;;6.20;;
71038;SDS011;58692;43.212;27.908;2023-11-22T03:39:23;15.20;;;7.27;;
71038;SDS011;58692;43.212;27.908;2023-11-22T03:41:48;13.45;;;7.25;;
71038;SDS011;58692;43.212;27.908;2023-11-22T03:44:15;12.30;;;6.82;;
71038;SDS011;58692;43.212;27.908;2023-11-22T03:46:41;14.83;;;7.43;;
71038;SDS011;58692;43.212;27.908;2023-11-22T03:49:07;23.70;;;9.32;;
71038;SDS011;58692;43.212;27.908;2023-11-22T03:51:33;23.08;;;8.65;;
71038;SDS011;58692;43.212;27.908;2023-11-22T03:54:00;18.45;;;11.00;;
71038;SDS011;58692;43.212;27.908;2023-11-22T03:56:27;27.73;;;15.50;;
71038;SDS011;58692;43.212;27.908;2023-11-22T03:58:53;31.75;;;19.27;;
71038;SDS011;58692;43.212;27.908;2023-11-22T04:01:19;42.22;;;21.67;;
71038;SDS011;58692;43.212;27.908;2023-11-22T04:03:46;30.42;;;18.52;;
71038;SDS011;58692;43.212;27.908;2023-11-22T04:06:13;31.37;;;19.07;;
71038;SDS011;58692;43.212;27.908;2023-11-22T04:08:41;32.20;;;18.08;;
71038;SDS011;58692;43.212;27.908;2023-11-22T04:11:09;31.67;;;18.23;;
71038;SDS011;58692;43.212;27.908;2023-11-22T04:13:35;27.13;;;16.60;;
71038;SDS011;58692;43.212;27.908;2023-11-22T04:16:01;30.88;;;17.48;;
71038;SDS011;58692;43.212;27.908;2023-11-22T04:18:26;24.90;;;15.60;;
71038;SDS011;58692;43.212;27.908;2023-11-22T04:20:52;25.40;;;15.27;;
71038;SDS011;58692;43.212;27.908;2023-11-22T04:23:18;31.17;;;16.17;;
71038;SDS011;58692;43.212;27.908;2023-11-22T04:25:43;32.00;;;16.55;;
71038;SDS011;58692;43.212;27.908;2023-11-22T04:28:09;29.90;;;15.73;;
71038;SDS011;58692;43.212;27.908;2023-11-22T04:30:35;30.95;;;16.25;;
71038;SDS011;58692;43.212;27.908;2023-11-22T04:33:01;27.67;;;16.70;;
71038;SDS011;58692;43.212;27.908;2023-11-22T04:35:27;27.95;;;15.38;;
71038;SDS011;58692;43.212;27.908;2023-11-22T04:37:52;28.38;;;16.55;;
71038;SDS011;58692;43.212;27.908;2023-11-22T04:40:20;27.30;;;15.10;;
71038;SDS011;58692;43.212;27.908;2023-11-22T04:42:46;24.30;;;14.83;;
71038;SDS011;58692;43.212;27.908;2023-11-22T04:45:13;25.30;;;14.75;;
71038;SDS011;58692;43.212;27.908;2023-11-22T04:47:39;25.02;;;15.40;;
71038;SDS011;58692;43.212;27.908;2023-11-22T04:50:05;29.37;;;15.50;;
71038;SDS011;58692;43.212;27.908;2023-11-22T04:52:32;28.70;;;15.38;;
71038;SDS011;58692;43.212;27.908;2023-11-22T04:54:57;27.85;;;15.13;;
71038;SDS011;58692;43.212;27.908;2023-11-22T04:57:23;26.27;;;14.13;;
71038;SDS011;58692;43.212;27.908;2023-11-22T04:59:49;27.90;;;14.80;;
71038;SDS011;58692;43.212;27.908;2023-11-22T05:02:14;32.93;;;16.00;;
71038;SDS011;58692;43.212;27.908;2023-11-22T05:04:41;30.45;;;17.10;;
71038;SDS011;58692;43.212;27.908;2023-11-22T05:07:07;33.90;;;18.55;;
71038;SDS011;58692;43.212;27.908;2023-11-22T05:09:34;27.35;;;16.42;;
71038;SDS011;58692;43.212;27.908;2023-11-22T05:11:59;27.43;;;14.93;;
71038;SDS011;58692;43.212;27.908;2023-11-22T05:14:25;29.13;;;16.30;;
71038;SDS011;58692;43.212;27.908;2023-11-22T05:16:51;29.67;;;15.73;;
71038;SDS011;58692;43.212;27.908;2023-11-22T05:19:20;28.02;;;15.77;;
71038;SDS011;58692;43.212;27.908;2023-11-22T05:21:46;31.92;;;15.65;;
71038;SDS011;58692;43.212;27.908;2023-11-22T05:24:12;31.90;;;16.20;;
71038;SDS011;58692;43.212;27.908;2023-11-22T05:26:40;28.00;;;16.42;;
71038;SDS011;58692;43.212;27.908;2023-11-22T05:29:06;31.10;;;19.35;;
71038;SDS011;58692;43.212;27.908;2023-11-22T05:31:34;43.37;;;26.87;;
71038;SDS011;58692;43.212;27.908;2023-11-22T05:34:06;50.40;;;30.00;;
71038;SDS011;58692;43.212;27.908;2023-11-22T05:36:34;33.95;;;21.92;;
71038;SDS011;58692;43.212;27.908;2023-11-22T05:39:00;44.00;;;26.07;;
71038;SDS011;58692;43.212;27.908;2023-11-22T05:41:26;49.15;;;29.63;;
71038;SDS011;58692;43.212;27.908;2023-11-22T05:43:52;69.28;;;32.88;;
71038;SDS011;58692;43.212;27.908;2023-11-22T05:46:19;53.53;;;33.40;;
71038;SDS011;58692;43.212;27.908;2023-11-22T05:48:48;51.50;;;31.95;;
71038;SDS011;58692;43.212;27.908;2023-11-22T05:51:16;48.75;;;28.08;;
71038;SDS011;58692;43.212;27.908;2023-11-22T05:53:44;41.15;;;23.95;;
71038;SDS011;58692;43.212;27.908;2023-11-22T05:56:10;37.63;;;23.65;;
71038;SDS011;58692;43.212;27.908;2023-11-22T05:58:40;39.97;;;22.37;;
71038;SDS011;58692;43.212;27.908;2023-11-22T06:01:05;38.15;;;22.42;;
71038;SDS011;58692;43.212;27.908;2023-11-22T06:03:31;37.90;;;21.95;;
71038;SDS011;58692;43.212;27.908;2023-11-22T06:05:58;41.40;;;23.33;;
71038;SDS011;58692;43.212;27.908;2023-11-22T06:08:23;48.75;;;23.42;;
71038;SDS011;58692;43.212;27.908;2023-11-22T06:10:52;42.33;;;23.70;;
71038;SDS011;58692;43.212;27.908;2023-11-22T06:13:18;50.92;;;24.08;;
71038;SDS011;58692;43.212;27.908;2023-11-22T06:15:45;50.40;;;25.13;;
71038;SDS011;58692;43.212;27.908;2023-11-22T06:18:11;40.60;;;25.85;;
71038;SDS011;58692;43.212;27.908;2023-11-22T06:20:39;40.83;;;26.63;;
71038;SDS011;58692;43.212;27.908;2023-11-22T06:23:12;46.28;;;26.75;;
71038;SDS011;58692;43.212;27.908;2023-11-22T06:25:38;42.90;;;26.50;;
71038;SDS011;58692;43.212;27.908;2023-11-22T06:28:07;47.92;;;26.85;;
71038;SDS011;58692;43.212;27.908;2023-11-22T06:30:33;34.90;;;22.35;;
71038;SDS011;58692;43.212;27.908;2023-11-22T06:33:00;35.33;;;21.13;;
71038;SDS011;58692;43.212;27.908;2023-11-22T06:35:26;33.20;;;19.48;;
71038;SDS011;58692;43.212;27.908;2023-11-22T06:37:52;34.05;;;20.10;;
71038;SDS011;58692;43.212;27.908;2023-11-22T06:40:18;36.25;;;20.73;;
71038;SDS011;58692;43.212;27.908;2023-11-22T06:42:48;40.08;;;21.63;;
71038;SDS011;58692;43.212;27.908;2023-11-22T06:45:17;40.63;;;21.10;;
71038;SDS011;58692;43.212;27.908;2023-11-22T06:47:48;41.10;;;22.48;;
71038;SDS011;58692;43.212;27.908;2023-11-22T06:50:15;36.17;;;22.80;;
71038;SDS011;58692;43.212;27.908;2023-11-22T06:52:42;43.58;;;22.73;;
71038;SDS011;58692;43.212;27.908;2023-11-22T06:55:09;35.95;;;22.92;;
71038;SDS011;58692;43.212;27.908;2023-11-22T06:57:35;39.47;;;22.27;;
71038;SDS011;58692;43.212;27.908;2023-11-22T07:00:05;36.47;;;21.35;;
71038;SDS011;58692;43.212;27.908;2023-11-22T07:02:34;38.15;;;20.58;;
71038;SDS011;58692;43.212;27.908;2023-11-22T07:05:01;42.95;;;24.05;;
71038;SDS011;58692;43.212;27.908;2023-11-22T07:07:28;44.17;;;24.30;;
71038;SDS011;58692;43.212;27.908;2023-11-22T07:09:55;52.03;;;26.53;;
71038;SDS011;58692;43.212;27.908;2023-11-22T07:12:23;45.10;;;24.92;;
71038;SDS011;58692;43.212;27.908;2023-11-22T07:14:57;49.97;;;27.90;;
71038;SDS011;58692;43.212;27.908;2023-11-22T07:20:15;59.30;;;29.85;;
71038;SDS011;58692;43.212;27.908;2023-11-22T07:22:42;50.37;;;30.37;;
71038;SDS011;58692;43.212;27.908;2023-11-22T07:25:08;53.90;;;31.63;;
71038;SDS011;58692;43.212;27.908;2023-11-22T07:27:44;61.47;;;34.72;;
71038;SDS011;58692;43.212;27.908;2023-11-22T07:30:12;64.03;;;37.75;;
71038;SDS011;58692;43.212;27.908;2023-11-22T07:32:39;71.28;;;38.33;;
71038;SDS011;58692;43.212;27.908;2023-11-22T07:35:08;66.20;;;39.60;;
71038;SDS011;58692;43.212;27.908;2023-11-22T07:37:34;64.80;;;40.15;;
71038;SDS011;58692;43.212;27.908;2023-11-22T07:40:05;70.68;;;44.00;;
71038;SDS011;58692;43.212;27.908;2023-11-22T07:42:37;62.40;;;39.50;;
71038;SDS011;58692;43.212;27.908;2023-11-22T07:45:03;62.10;;;38.00;;
71038;SDS011;58692;43.212;27.908;2023-11-22T07:47:29;59.53;;;35.23;;
71038;SDS011;58692;43.212;27.908;2023-11-22T07:49:58;61.03;;;34.53;;
71038;SDS011;58692;43.212;27.908;2023-11-22T07:52:24;59.85;;;35.33;;
71038;SDS011;58692;43.212;27.908;2023-11-22T07:54:56;72.10;;;35.20;;
71038;SDS011;58692;43.212;27.908;2023-11-22T07:57:22;71.25;;;36.83;;
71038;SDS011;58692;43.212;27.908;2023-11-22T07:59:50;58.45;;;33.75;;
71038;SDS011;58692;43.212;27.908;2023-11-22T08:02:23;64.70;;;32.53;;
71038;SDS011;58692;43.212;27.908;2023-11-22T08:04:53;50.22;;;26.67;;
71038;SDS011;58692;43.212;27.908;2023-11-22T08:07:22;50.50;;;26.30;;
71038;SDS011;58692;43.212;27.908;2023-11-22T08:09:48;53.28;;;27.38;;
71038;SDS011;58692;43.212;27.908;2023-11-22T08:12:14;50.00;;;24.70;;
71038;SDS011;58692;43.212;27.908;2023-11-22T08:14:56;43.47;;;23.65;;
71038;SDS011;58692;43.212;27.908;2023-11-22T08:17:27;39.93;;;23.20;;
71038;SDS011;58692;43.212;27.908;2023-11-22T08:19:52;42.15;;;23.70;;
71038;SDS011;58692;43.212;27.908;2023-11-22T08:22:19;40.03;;;22.57;;
71038;SDS011;58692;43.212;27.908;2023-11-22T08:24:50;35.75;;;18.73;;
71038;SDS011;58692;43.212;27.908;2023-11-22T08:27:16;13.20;;;7.47;;
71038;SDS011;58692;43.212;27.908;2023-11-22T08:29:42;13.30;;;5.83;;
71038;SDS011;58692;43.212;27.908;2023-11-22T08:32:07;14.80;;;5.13;;
71038;SDS011;58692;43.212;27.908;2023-11-22T08:34:33;11.95;;;5.55;;
71038;SDS011;58692;43.212;27.908;2023-11-22T08:37:00;14.23;;;6.43;;
71038;SDS011;58692;43.212;27.908;2023-11-22T08:39:26;15.60;;;7.00;;
71038;SDS011;58692;43.212;27.908;2023-11-22T08:41:52;14.85;;;8.30;;
71038;SDS011;58692;43.212;27.908;2023-11-22T08:44:18;25.37;;;12.87;;
71038;SDS011;58692;43.212;27.908;2023-11-22T08:46:45;25.85;;;13.48;;
71038;SDS011;58692;43.212;27.908;2023-11-22T08:49:15;26.17;;;12.15;;
71038;SDS011;58692;43.212;27.908;2023-11-22T08:52:06;23.83;;;13.00;;
71038;SDS011;58692;43.212;27.908;2023-11-22T08:57:25;24.77;;;12.60;;
71038;SDS011;58692;43.212;27.908;2023-11-22T08:59:55;28.23;;;13.27;;
71038;SDS011;58692;43.212;27.908;2023-11-22T09:02:32;29.25;;;13.60;;
71038;SDS011;58692;43.212;27.908;2023-11-22T09:04:58;21.58;;;13.75;;
71038;SDS011;58692;43.212;27.908;2023-11-22T09:07:35;25.67;;;12.30;;
71038;SDS011;58692;43.212;27.908;2023-11-22T09:10:03;21.70;;;10.88;;
71038;SDS011;58692;43.212;27.908;2023-11-22T09:12:35;19.80;;;11.05;;
71038;SDS011;58692;43.212;27.908;2023-11-22T09:15:07;17.58;;;9.85;;
71038;SDS011;58692;43.212;27.908;2023-11-22T09:20:59;21.93;;;10.83;;
71038;SDS011;58692;43.212;27.908;2023-11-22T09:23:25;22.38;;;10.60;;
71038;SDS011;58692;43.212;27.908;2023-11-22T09:25:57;17.35;;;8.82;;
71038;SDS011;58692;43.212;27.908;2023-11-22T09:28:30;16.02;;;8.68;;
71038;SDS011;58692;43.212;27.908;2023-11-22T09:31:01;19.73;;;8.48;;
71038;SDS011;58692;43.212;27.908;2023-11-22T09:33:33;16.40;;;8.60;;
71038;SDS011;58692;43.212;27.908;2023-11-22T09:36:02;20.00;;;10.02;;
71038;SDS011;58692;43.212;27.908;2023-11-22T09:38:56;15.30;;;7.95;;
71038;SDS011;58692;43.212;27.908;2023-11-22T09:41:43;14.23;;;8.05;;
71038;SDS011;58692;43.212;27.908;2023-11-22T09:44:11;16.45;;;7.65;;
71038;SDS011;58692;43.212;27.908;2023-11-22T09:46:37;16.70;;;7.90;;
71038;SDS011;58692;43.212;27.908;2023-11-22T09:49:18;14.48;;;7.97;;
71038;SDS011;58692;43.212;27.908;2023-11-22T09:51:51;15.07;;;7.45;;
71038;SDS011;58692;43.212;27.908;2023-11-22T09:54:26;13.98;;;6.70;;
71038;SDS011;58692;43.212;27.908;2023-11-22T09:56:59;15.25;;;6.68;;
71038;SDS011;58692;43.212;27.908;2023-11-22T09:59:28;15.60;;;7.20;;
71038;SDS011;58692;43.212;27.908;2023-11-22T10:01:54;13.73;;;6.75;;
71038;SDS011;58692;43.212;27.908;2023-11-22T10:04:23;15.85;;;7.28;;
71038;SDS011;58692;43.212;27.908;2023-11-22T10:06:57;16.52;;;7.68;;
71038;SDS011;58692;43.212;27.908;2023-11-22T10:09:24;15.18;;;7.50;;
71038;SDS011;58692;43.212;27.908;2023-11-22T10:11:58;14.80;;;7.10;;
71038;SDS011;58692;43.212;27.908;2023-11-22T10:14:27;13.43;;;7.15;;
71038;SDS011;58692;43.212;27.908;2023-11-22T10:17:00;16.60;;;7.53;;
71038;SDS011;58692;43.212;27.908;2023-11-22T10:23:14;14.43;;;7.40;;
71038;SDS011;58692;43.212;27.908;2023-11-22T10:25:50;16.63;;;9.13;;
71038;SDS011;58692;43.212;27.908;2023-11-22T10:31:28;15.82;;;9.43;;
71038;SDS011;58692;43.212;27.908;2023-11-22T10:34:08;17.15;;;9.75;;
71038;SDS011;58692;43.212;27.908;2023-11-22T10:36:37;17.90;;;10.73;;
71038;SDS011;58692;43.212;27.908;2023-11-22T10:39:03;16.85;;;9.82;;
71038;SDS011;58692;43.212;27.908;2023-11-22T10:41:42;20.50;;;9.68;;
71038;SDS011;58692;43.212;27.908;2023-11-22T10:44:08;16.75;;;10.77;;
71038;SDS011;58692;43.212;27.908;2023-11-22T10:46:35;18.35;;;10.18;;
71038;SDS011;58692;43.212;27.908;2023-11-22T10:49:04;16.83;;;10.50;;
71038;SDS011;58692;43.212;27.908;2023-11-22T10:51:50;22.52;;;10.50;;
71038;SDS011;58692;43.212;27.908;2023-11-22T10:54:23;15.40;;;9.68;;
71038;SDS011;58692;43.212;27.908;2023-11-22T10:56:54;20.02;;;10.38;;
71038;SDS011;58692;43.212;27.908;2023-11-22T10:59:29;20.05;;;9.57;;
71038;SDS011;58692;43.212;27.908;2023-11-22T11:01:59;17.17;;;8.53;;
71038;SDS011;58692;43.212;27.908;2023-11-22T11:04:34;20.77;;;8.50;;
71038;SDS011;58692;43.212;27.908;2023-11-22T11:07:11;15.05;;;8.00;;
71038;SDS011;58692;43.212;27.908;2023-11-22T11:09:41;13.60;;;7.00;;
71038;SDS011;58692;43.212;27.908;2023-11-22T11:12:11;15.10;;;7.53;;
71038;SDS011;58692;43.212;27.908;2023-11-22T11:14:39;13.77;;;7.27;;
71038;SDS011;58692;43.212;27.908;2023-11-22T11:17:20;16.95;;;7.10;;
71038;SDS011;58692;43.212;27.908;2023-11-22T11:20:18;11.10;;;5.60;;
71038;SDS011;58692;43.212;27.908;2023-11-22T11:22:46;13.05;;;6.53;;
71038;SDS011;58692;43.212;27.908;2023-11-22T11:25:13;13.48;;;6.72;;
71038;SDS011;58692;43.212;27.908;2023-11-22T11:27:44;10.30;;;5.37;;
71038;SDS011;58692;43.212;27.908;2023-11-22T11:33:09;10.23;;;4.25;;
71038;SDS011;58692;43.212;27.908;2023-11-22T11:35:38;13.90;;;4.60;;
71038;SDS011;58692;43.212;27.908;2023-11-22T11:38:04;12.05;;;4.72;;
71038;SDS011;58692;43.212;27.908;2023-11-22T11:40:34;10.73;;;4.30;;
71038;SDS011;58692;43.212;27.908;2023-11-22T11:43:01;9.88;;;4.60;;
71038;SDS011;58692;43.212;27.908;2023-11-22T11:45:27;10.93;;;4.60;;
71038;SDS011;58692;43.212;27.908;2023-11-22T11:47:54;13.80;;;4.90;;
71038;SDS011;58692;43.212;27.908;2023-11-22T11:50:21;9.33;;;3.93;;
71038;SDS011;58692;43.212;27.908;2023-11-22T11:52:48;8.73;;;4.13;;
71038;SDS011;58692;43.212;27.908;2023-11-22T11:55:13;10.17;;;4.47;;
71038;SDS011;58692;43.212;27.908;2023-11-22T11:57:40;11.45;;;4.15;;
71038;SDS011;58692;43.212;27.908;2023-11-22T12:00:07;9.15;;;3.60;;
71038;SDS011;58692;43.212;27.908;2023-11-22T12:02:34;9.82;;;3.35;;
71038;SDS011;58692;43.212;27.908;2023-11-22T12:05:03;9.57;;;3.70;;
71038;SDS011;58692;43.212;27.908;2023-11-22T12:07:34;7.67;;;3.13;;
71038;SDS011;58692;43.212;27.908;2023-11-22T12:10:01;9.38;;;3.65;;
71038;SDS011;58692;43.212;27.908;2023-11-22T12:12:26;7.10;;;3.28;;
71038;SDS011;58692;43.212;27.908;2023-11-22T12:14:56;8.02;;;3.38;;
71038;SDS011;58692;43.212;27.908;2023-11-22T12:17:26;7.50;;;2.58;;
71038;SDS011;58692;43.212;27.908;2023-11-22T12:23:08;6.40;;;2.40;;
71038;SDS011;58692;43.212;27.908;2023-11-22T12:25:42;7.68;;;2.58;;
71038;SDS011;58692;43.212;27.908;2023-11-22T12:28:09;8.18;;;2.70;;
71038;SDS011;58692;43.212;27.908;2023-11-22T12:30:35;9.07;;;3.03;;
71038;SDS011;58692;43.212;27.908;2023-11-22T12:33:05;6.80;;;2.67;;
71038;SDS011;58692;43.212;27.908;2023-11-22T12:35:32;9.25;;;2.55;;
71038;SDS011;58692;43.212;27.908;2023-11-22T12:38:00;7.60;;;2.58;;
71038;SDS011;58692;43.212;27.908;2023-11-22T12:40:27;9.02;;;3.10;;
71038;SDS011;58692;43.212;27.908;2023-11-22T12:42:58;7.95;;;2.90;;
71038;SDS011;58692;43.212;27.908;2023-11-22T12:45:26;6.77;;;3.10;;
71038;SDS011;58692;43.212;27.908;2023-11-22T12:47:54;6.47;;;2.60;;
71038;SDS011;58692;43.212;27.908;2023-11-22T12:53:11;8.20;;;3.03;;
71038;SDS011;58692;43.212;27.908;2023-11-22T12:55:41;6.90;;;2.90;;
71038;SDS011;58692;43.212;27.908;2023-11-22T12:58:11;8.93;;;3.20;;
71038;SDS011;58692;43.212;27.908;2023-11-22T13:00:39;6.82;;;3.03;;
71038;SDS011;58692;43.212;27.908;2023-11-22T13:03:10;6.65;;;3.00;;
71038;SDS011;58692;43.212;27.908;2023-11-22T13:05:39;7.65;;;3.00;;
71038;SDS011;58692;43.212;27.908;2023-11-22T13:08:17;6.68;;;3.03;;
71038;SDS011;58692;43.212;27.908;2023-11-22T13:10:45;8.87;;;3.90;;
71038;SDS011;58692;43.212;27.908;2023-11-22T13:13:17;7.75;;;3.30;;
71038;SDS011;58692;43.212;27.908;2023-11-22T13:16:16;9.52;;;2.40;;
71038;SDS011;58692;43.212;27.908;2023-11-22T13:18:42;7.03;;;3.23;;
71038;SDS011;58692;43.212;27.908;2023-11-22T13:21:08;8.32;;;3.33;;
71038;SDS011;58692;43.212;27.908;2023-11-22T13:23:43;6.63;;;2.38;;
71038;SDS011;58692;43.212;27.908;2023-11-22T13:26:32;7.40;;;2.80;;
71038;SDS011;58692;43.212;27.908;2023-11-22T13:28:59;8.57;;;4.00;;
71038;SDS011;58692;43.212;27.908;2023-11-22T13:31:25;8.68;;;3.25;;
71038;SDS011;58692;43.212;27.908;2023-11-22T13:33:51;4.78;;;2.17;;
71038;SDS011;58692;43.212;27.908;2023-11-22T13:36:17;7.27;;;2.60;;
71038;SDS011;58692;43.212;27.908;2023-11-22T13:38:42;6.30;;;2.47;;
71038;SDS011;58692;43.212;27.908;2023-11-22T13:41:09;7.57;;;2.73;;
71038;SDS011;58692;43.212;27.908;2023-11-22T13:43:34;5.53;;;2.50;;
71038;SDS011;58692;43.212;27.908;2023-11-22T13:46:00;6.85;;;2.90;;
71038;SDS011;58692;43.212;27.908;2023-11-22T13:48:26;8.73;;;2.73;;
71038;SDS011;58692;43.212;27.908;2023-11-22T13:50:55;6.22;;;2.47;;
71038;SDS011;58692;43.212;27.908;2023-11-22T13:53:28;4.82;;;2.72;;
71038;SDS011;58692;43.212;27.908;2023-11-22T13:55:58;5.93;;;3.00;;
71038;SDS011;58692;43.212;27.908;2023-11-22T13:58:25;6.72;;;2.83;;
71038;SDS011;58692;43.212;27.908;2023-11-22T14:00:52;8.05;;;3.15;;
71038;SDS011;58692;43.212;27.908;2023-11-22T14:03:19;8.13;;;3.42;;
71038;SDS011;58692;43.212;27.908;2023-11-22T14:05:47;8.32;;;3.35;;
71038;SDS011;58692;43.212;27.908;2023-11-22T14:08:13;8.93;;;4.70;;
71038;SDS011;58692;43.212;27.908;2023-11-22T14:10:40;7.20;;;2.90;;
71038;SDS011;58692;43.212;27.908;2023-11-22T14:13:06;7.07;;;3.50;;
71038;SDS011;58692;43.212;27.908;2023-11-22T14:15:34;5.67;;;2.90;;
71038;SDS011;58692;43.212;27.908;2023-11-22T14:18:03;6.35;;;2.85;;
71038;SDS011;58692;43.212;27.908;2023-11-22T14:20:30;6.75;;;3.20;;
71038;SDS011;58692;43.212;27.908;2023-11-22T14:23:03;7.72;;;3.08;;
71038;SDS011;58692;43.212;27.908;2023-11-22T14:25:32;6.70;;;2.90;;
71038;SDS011;58692;43.212;27.908;2023-11-22T14:27:58;6.63;;;3.17;;
71038;SDS011;58692;43.212;27.908;2023-11-22T14:30:24;4.82;;;2.90;;
71038;SDS011;58692;43.212;27.908;2023-11-22T14:32:53;7.95;;;3.50;;
71038;SDS011;58692;43.212;27.908;2023-11-22T14:35:19;7.15;;;3.38;;
71038;SDS011;58692;43.212;27.908;2023-11-22T14:37:45;6.70;;;3.10;;
71038;SDS011;58692;43.212;27.908;2023-11-22T14:40:10;7.60;;;4.07;;
71038;SDS011;58692;43.212;27.908;2023-11-22T14:42:45;6.45;;;3.40;;
71038;SDS011;58692;43.212;27.908;2023-11-22T14:45:14;6.60;;;2.87;;
71038;SDS011;58692;43.212;27.908;2023-11-22T14:47:40;6.18;;;3.10;;
71038;SDS011;58692;43.212;27.908;2023-11-22T14:50:07;7.00;;;3.00;;